Hovedside
METAR-TAF:

METAR-TAF

Lufthavner :

Kittilä lufthavn

Kittilä, Finland

breddegrad: 67-42N, lengdegrad: 024-51E, høyde over havet: 196 m

Gjeldene værobservasjon

Denne rapporten ble laget for 20 minutter siden, klokken 05:20 UTC
Vind 3 kt fra skiftende retning
Temperatur -8°C
Luftfuktighet 100%
Trykk 1006 hPa
Sikt 10 km eller mer
ingen skyer under 1500 m og ingen bygeskyer

METAR: EFKT 240520Z AUTO VRB03KT CAVOK M08/M08 Q1006

Tid: 08:40 (05:40 UTC)

Varsel

Denne rapporten ble laget for 15 timer og 19 minutter siden, klokken 14:21 UTC
Varsel gyldig fra 23. klokken 15 UTC til 23. klokken 17 UTC
Vind 6 kt fra Sørvest
Sikt 10 km eller mer
Overskyet i en høyde av 1100 ft
Midlertidig
fra 23. klokken 15 UTC til 23. klokken 17 UTC
Brutte skyer i en høyde av 800 ft

TAF: EFKT 231421Z 2315/2317 22006KT 9999 OVC011 TEMPO 2315/2317 BKN008

Værobservasjoner og værvarsel for over 4000 flyplasser (METAR- og TAF-rapporter).

Tilgjengelige stasjoner er representert av de røde og gule prikkene på kartet.

Hold musepekeren over prikken for å se navnet på stasjonen.

Klikk så for å se værobservasjoner og -varsler.

For å forandre kartet kan du klikke på den grønne knappen med svart kryss for å zoome inn, på den grønne knappen med strek for å zoome ut, eller på de grønne pilene for å se tilstøtende kart.


METAR-TAF: